Time;durP1;ratioP1;P1;durP2;ratioP2;P2;SDS_P1;SDS_P2;PMS_P1;PMS_P2;Temp;Humidity;BMP_temperature;BMP_pressure;BME280_temperature;BME280_humidity;BME280_pressure;Samples;Min_cycle;Max_cycle;Signal;HPM_P1;HPM_P2
2024/01/05 00:00:17;;;;;;;8.60;4.60;;;;;;;2.58;83.10;96134.37;107874;1239;99121;-77
2024/01/05 00:03:04;;;;;;;9.40;4.70;;;;;;;2.60;83.02;96148.33;107782;1242;97984;-81
2024/01/05 00:05:31;;;;;;;5.60;4.60;;;;;;;2.55;82.83;96155.99;107762;1240;98345;-80
2024/01/05 00:07:57;;;;;;;7.20;4.70;;;;;;;2.53;82.73;96165.66;107826;1245;97891;-81
2024/01/05 00:10:23;;;;;;;5.20;4.20;;;;;;;2.52;82.69;96172.66;107819;1249;97915;-79
2024/01/05 00:12:51;;;;;;;6.00;4.50;;;;;;;2.52;82.63;96178.85;107863;1247;97935;-78
2024/01/05 00:15:18;;;;;;;7.10;4.70;;;;;;;2.54;82.62;96182.73;107956;1249;97915;-77
2024/01/05 00:17:44;;;;;;;6.50;4.50;;;;;;;2.52;82.51;96189.29;108002;1238;97913;-81
2024/01/05 00:20:12;;;;;;;4.50;3.80;;;;;;;2.51;82.39;96192.86;107792;1249;97955;-81
2024/01/05 00:22:38;;;;;;;6.30;4.30;;;;;;;2.49;82.18;96188.31;107775;1242;97984;-82
2024/01/05 00:25:05;;;;;;;6.20;4.20;;;;;;;2.48;82.13;96194.80;107832;1249;98819;-82
2024/01/05 00:27:31;;;;;;;7.00;4.40;;;;;;;2.49;82.17;96199.30;107799;1239;102971;-77
2024/01/05 00:29:58;;;;;;;5.90;4.70;;;;;;;2.47;82.30;96200.34;107751;1249;97996;-80
2024/01/05 00:32:25;;;;;;;7.10;3.80;;;;;;;2.34;82.15;96201.73;107708;1248;99156;-80
2024/01/05 00:34:51;;;;;;;6.40;4.20;;;;;;;2.28;82.13;96207.83;107807;1235;98808;-82
2024/01/05 00:37:17;;;;;;;6.20;4.10;;;;;;;2.29;82.18;96214.83;107858;1246;97888;-81
2024/01/05 00:39:44;;;;;;;7.20;4.10;;;;;;;2.30;82.20;96216.02;107783;1245;101098;-82
2024/01/05 00:42:11;;;;;;;6.10;4.30;;;;;;;2.32;82.15;96224.59;107786;1244;97886;-81
2024/01/05 00:44:40;;;;;;;6.70;4.60;;;;;;;2.33;82.14;96232.48;107802;1235;99145;-80
2024/01/05 00:47:07;;;;;;;5.50;3.90;;;;;;;2.32;82.04;96242.80;107763;1246;98337;-78
2024/01/05 00:49:34;;;;;;;6.10;4.50;;;;;;;2.28;81.94;96240.17;107779;1241;97908;-78
2024/01/05 00:52:00;;;;;;;6.30;4.20;;;;;;;2.24;81.90;96240.16;107804;1241;97916;-77
2024/01/05 00:54:30;;;;;;;4.40;3.90;;;;;;;2.22;81.81;96252.09;107888;1247;97958;-78
2024/01/05 00:56:56;;;;;;;4.80;3.80;;;;;;;2.20;81.80;96248.39;107900;1238;98346;-77
2024/01/05 00:59:26;;;;;;;5.40;3.80;;;;;;;2.21;81.79;96244.95;107893;1240;97931;-77
2024/01/05 01:01:53;;;;;;;5.40;3.70;;;;;;;2.22;81.82;96240.02;107898;1238;100273;-81
2024/01/05 01:04:20;;;;;;;5.90;4.00;;;;;;;2.23;81.86;96234.55;107777;1239;99108;-81
2024/01/05 01:06:46;;;;;;;6.40;3.60;;;;;;;2.23;81.74;96235.45;107702;1239;97892;-81
2024/01/05 01:09:13;;;;;;;4.70;3.40;;;;;;;2.25;81.57;96238.58;107811;1235;98796;-88
2024/01/05 01:11:39;;;;;;;4.60;3.60;;;;;;;2.28;81.49;96241.98;107822;1237;97873;-87
2024/01/05 01:14:06;;;;;;;4.00;2.70;;;;;;;2.30;81.54;96235.44;107799;1240;99090;-87
2024/01/05 01:16:32;;;;;;;5.80;2.80;;;;;;;2.32;81.39;96231.64;107774;1237;97985;-87
2024/01/05 01:18:59;;;;;;;3.50;2.70;;;;;;;2.33;81.29;96220.64;107785;1240;97902;-87
2024/01/05 01:21:26;;;;;;;6.00;3.60;;;;;;;2.37;81.22;96216.88;107775;1243;98420;-88
2024/01/05 01:24:13;;;;;;;4.40;3.10;;;;;;;2.39;81.25;96216.91;107824;1247;98220;-77
2024/01/05 01:26:39;;;;;;;4.90;3.30;;;;;;;2.41;81.25;96215.98;107474;1242;97984;-77
2024/01/05 01:29:16;;;;;;;4.10;3.10;;;;;;;2.40;81.07;96212.05;107627;1241;97831;-77
2024/01/05 01:31:43;;;;;;;5.40;3.10;;;;;;;2.39;80.99;96211.21;107613;1238;103686;-87
2024/01/05 01:34:09;;;;;;;4.50;3.00;;;;;;;2.39;80.92;96213.19;107394;1249;99104;-89
2024/01/05 01:36:35;;;;;;;5.10;3.60;;;;;;;2.39;80.93;96205.59;107738;1249;97900;-89
2024/01/05 01:39:04;;;;;;;4.70;3.40;;;;;;;2.39;80.84;96202.56;107771;1239;97906;-91
2024/01/05 01:41:31;;;;;;;4.90;3.50;;;;;;;2.39;80.87;96205.16;107831;1238;104108;-86
2024/01/05 01:43:58;;;;;;;4.40;3.20;;;;;;;2.39;80.83;96204.83;107800;1240;99147;-80
2024/01/05 01:46:25;;;;;;;5.60;3.30;;;;;;;2.38;80.69;96206.20;107805;1238;99131;-80
2024/01/05 01:48:52;;;;;;;3.90;2.80;;;;;;;2.37;80.68;96211.18;107785;1246;97899;-81
2024/01/05 01:51:18;;;;;;;5.50;3.30;;;;;;;2.37;80.79;96217.84;107759;1238;97901;-80
2024/01/05 01:53:45;;;;;;;4.00;3.10;;;;;;;2.37;80.71;96221.44;107841;1239;97912;-81
2024/01/05 01:56:13;;;;;;;4.10;3.00;;;;;;;2.35;80.47;96222.55;107816;1239;98470;-80
2024/01/05 01:58:42;;;;;;;4.70;3.20;;;;;;;2.32;80.42;96226.45;107779;1241;97889;-80
2024/01/05 02:01:09;;;;;;;4.20;3.40;;;;;;;2.27;80.40;96223.70;107774;1237;98338;-88
2024/01/05 02:03:36;;;;;;;8.30;3.10;;;;;;;2.24;80.46;96226.11;107567;1241;97889;-87
2024/01/05 02:06:03;;;;;;;5.20;3.30;;;;;;;2.21;80.42;96228.91;107820;1244;98752;-87
2024/01/05 02:08:29;;;;;;;4.40;3.40;;;;;;;2.20;80.32;96237.77;107386;1239;98347;-88
2024/01/05 02:10:55;;;;;;;6.70;4.10;;;;;;;2.20;80.40;96237.81;107532;1249;97818;-87
2024/01/05 02:13:22;;;;;;;4.80;3.40;;;;;;;2.16;80.40;96242.37;107453;1239;103117;-86
2024/01/05 02:15:49;;;;;;;4.80;3.70;;;;;;;2.11;80.32;96250.45;107708;1249;99164;-81
2024/01/05 02:18:18;;;;;;;5.80;3.60;;;;;;;2.10;80.46;96263.52;107743;1249;97959;-83
2024/01/05 02:20:46;;;;;;;5.00;4.20;;;;;;;2.08;80.49;96263.33;107812;1240;97865;-81
2024/01/05 02:23:26;;;;;;;6.80;3.70;;;;;;;2.10;80.61;96263.51;107807;1248;98810;-82
2024/01/05 02:25:54;;;;;;;5.30;3.40;;;;;;;2.13;80.59;96261.01;107759;1239;103428;-80
2024/01/05 02:28:21;;;;;;;6.60;3.80;;;;;;;2.13;80.53;96257.83;107794;1243;100287;-81
2024/01/05 02:30:48;;;;;;;7.20;4.30;;;;;;;2.14;80.61;96253.55;107787;1239;99411;-81
2024/01/05 02:33:14;;;;;;;4.90;3.90;;;;;;;2.15;80.63;96254.00;107832;1240;97977;-82
2024/01/05 02:35:41;;;;;;;5.00;3.80;;;;;;;2.13;80.64;96259.02;107426;1243;98926;-80
2024/01/05 02:38:07;;;;;;;6.30;3.90;;;;;;;2.07;80.49;96257.34;107882;1241;97943;-82
2024/01/05 02:40:34;;;;;;;5.20;3.70;;;;;;;2.03;80.57;96261.11;107721;1241;99881;-80
2024/01/05 02:43:00;;;;;;;7.10;3.90;;;;;;;2.06;80.76;96257.45;107371;1243;97922;-80
2024/01/05 02:45:30;;;;;;;5.50;3.70;;;;;;;2.11;80.82;96256.48;107782;1239;99669;-80
2024/01/05 02:48:06;;;;;;;5.00;3.60;;;;;;;2.14;80.74;96259.06;107521;1238;97934;-77
2024/01/05 02:50:32;;;;;;;7.30;3.90;;;;;;;2.16;80.76;96263.52;107417;1240;100206;-77
2024/01/05 02:52:58;;;;;;;4.80;3.70;;;;;;;2.16;80.80;96266.59;107386;1248;99172;-77
2024/01/05 02:55:25;;;;;;;4.90;3.70;;;;;;;2.15;80.70;96261.81;107478;1244;97982;-77
2024/01/05 02:57:51;;;;;;;4.80;3.90;;;;;;;2.14;80.72;96265.45;107682;1237;97886;-78
2024/01/05 03:00:18;;;;;;;4.40;3.90;;;;;;;2.06;80.68;96276.94;107862;1239;101224;-88
2024/01/05 03:02:44;;;;;;;5.70;3.70;;;;;;;1.94;80.69;96278.56;107714;1249;97841;-83
2024/01/05 03:05:10;;;;;;;5.90;4.20;;;;;;;1.92;80.88;96283.77;107652;1241;97983;-83
2024/01/05 03:07:37;;;;;;;6.00;4.20;;;;;;;1.94;80.93;96283.77;107855;1239;97947;-83
2024/01/05 03:10:04;;;;;;;7.30;3.80;;;;;;;1.90;80.90;96284.77;107756;1237;100918;-83
2024/01/05 03:12:30;;;;;;;5.10;3.90;;;;;;;1.87;80.90;96284.55;107778;1238;98461;-80
2024/01/05 03:14:59;;;;;;;4.30;3.90;;;;;;;1.89;80.87;96283.31;107782;1249;97958;-83
2024/01/05 03:17:26;;;;;;;5.50;4.10;;;;;;;1.92;80.93;96282.88;107795;1239;98417;-83
2024/01/05 03:19:52;;;;;;;5.80;4.20;;;;;;;1.90;80.94;96287.71;107751;1239;99134;-82
2024/01/05 03:22:18;;;;;;;5.80;4.50;;;;;;;1.88;80.98;96288.02;107811;1241;98382;-80
2024/01/05 03:24:45;;;;;;;5.50;4.30;;;;;;;1.92;80.95;96306.57;107777;1246;97964;-82
2024/01/05 03:27:14;;;;;;;5.60;4.50;;;;;;;1.92;80.84;96318.77;107801;1239;98408;-80
2024/01/05 03:29:41;;;;;;;4.60;4.00;;;;;;;1.90;80.80;96314.16;107807;1239;102532;-80
2024/01/05 03:32:08;;;;;;;5.10;4.30;;;;;;;1.88;80.86;96302.17;107827;1238;97872;-81
2024/01/05 03:34:34;;;;;;;8.10;4.30;;;;;;;1.92;80.92;96302.40;107788;1240;97990;-84
2024/01/05 03:37:01;;;;;;;5.20;4.00;;;;;;;1.96;80.94;96301.74;107828;1246;99137;-81
2024/01/05 03:39:27;;;;;;;5.50;4.30;;;;;;;1.97;80.83;96300.36;107840;1240;97924;-82
2024/01/05 03:41:54;;;;;;;5.50;4.00;;;;;;;1.97;80.90;96306.55;107883;1239;100202;-87
2024/01/05 03:44:20;;;;;;;7.70;4.60;;;;;;;2.01;80.78;96312.00;107807;1238;98310;-88
2024/01/05 03:46:48;;;;;;;6.10;4.30;;;;;;;2.02;80.88;96310.03;107776;1248;98906;-86
2024/01/05 03:49:15;;;;;;;6.30;4.30;;;;;;;2.04;80.87;96307.29;107738;1245;98520;-85
2024/01/05 03:51:42;;;;;;;9.80;4.80;;;;;;;2.07;80.81;96308.96;107788;1239;98683;-87
2024/01/05 03:54:09;;;;;;;5.60;4.70;;;;;;;2.06;80.74;96303.88;107872;1248;97890;-87
2024/01/05 03:56:46;;;;;;;5.50;4.50;;;;;;;2.04;80.66;96302.11;107744;1241;99130;-86
2024/01/05 03:59:13;;;;;;;5.50;4.70;;;;;;;2.00;80.72;96297.70;107829;1241;98351;-82
2024/01/05 04:01:47;;;;;;;5.00;4.30;;;;;;;1.95;80.71;96290.67;107797;1248;97900;-88
2024/01/05 04:04:14;;;;;;;6.30;5.30;;;;;;;1.93;80.70;96296.60;107807;1239;101222;-87
2024/01/05 04:06:41;;;;;;;8.30;5.20;;;;;;;1.95;80.75;96301.92;107751;1235;98272;-86
2024/01/05 04:09:09;;;;;;;7.70;5.20;;;;;;;1.95;80.79;96304.30;107771;1247;98829;-86
2024/01/05 04:11:38;;;;;;;6.10;5.40;;;;;;;1.90;80.80;96304.21;107785;1248;98813;-87
2024/01/05 04:14:05;;;;;;;6.30;5.50;;;;;;;1.88;80.87;96305.11;107795;1239;103637;-87
2024/01/05 04:16:39;;;;;;;7.00;5.40;;;;;;;1.84;80.89;96299.16;107764;1245;101160;-78
2024/01/05 04:19:06;;;;;;;7.50;6.10;;;;;;;1.78;80.92;96298.60;107805;1247;99133;-77
2024/01/05 04:21:32;;;;;;;7.60;5.40;;;;;;;1.77;81.06;96295.19;107827;1249;97899;-77
2024/01/05 04:23:58;;;;;;;7.70;5.80;;;;;;;1.74;81.21;96297.93;107795;1247;97905;-77
2024/01/05 04:26:25;;;;;;;6.90;5.50;;;;;;;1.72;81.20;96301.81;107847;1245;98195;-78
2024/01/05 04:28:52;;;;;;;6.80;5.60;;;;;;;1.71;81.25;96300.70;107885;1235;99856;-77
2024/01/05 04:31:18;;;;;;;9.00;7.10;;;;;;;1.70;81.34;96298.96;107798;1250;97898;-81
2024/01/05 04:33:45;;;;;;;9.80;7.70;;;;;;;1.71;81.49;96303.48;107693;1249;99140;-81
2024/01/05 04:36:15;;;;;;;11.20;7.50;;;;;;;1.71;81.52;96306.18;107875;1239;98036;-82
2024/01/05 04:38:42;;;;;;;9.20;5.90;;;;;;;1.70;81.74;96309.05;107898;1244;99816;-86
2024/01/05 04:41:09;;;;;;;10.10;7.20;;;;;;;1.68;81.75;96307.89;107769;1238;97901;-82
2024/01/05 04:43:36;;;;;;;8.80;7.30;;;;;;;1.66;81.61;96308.58;107768;1250;98429;-82
2024/01/05 04:46:02;;;;;;;10.20;7.50;;;;;;;1.68;81.70;96309.10;107816;1247;97927;-88
2024/01/05 04:48:29;;;;;;;8.20;6.90;;;;;;;1.72;81.67;96309.73;107801;1247;97974;-88
2024/01/05 04:50:56;;;;;;;8.20;6.60;;;;;;;1.76;81.68;96311.96;107785;1239;99096;-89
2024/01/05 04:53:22;;;;;;;13.70;7.00;;;;;;;1.79;81.68;96314.21;107843;1247;97921;-87
2024/01/05 04:55:48;;;;;;;11.80;7.50;;;;;;;1.79;81.58;96313.73;107787;1240;99156;-88
2024/01/05 04:58:15;;;;;;;9.40;7.20;;;;;;;1.80;81.60;96303.86;107696;1237;97913;-79
2024/01/05 05:00:41;;;;;;;10.30;7.50;;;;;;;1.82;81.57;96303.92;107794;1241;98008;-83
2024/01/05 05:03:09;;;;;;;9.90;7.10;;;;;;;1.85;81.58;96312.31;107823;1241;97981;-81
2024/01/05 05:05:37;;;;;;;11.20;6.70;;;;;;;1.83;81.61;96316.45;107823;1241;98905;-82
2024/01/05 05:08:04;;;;;;;12.30;7.80;;;;;;;1.79;81.74;96320.56;107785;1241;99169;-79
2024/01/05 05:10:30;;;;;;;9.70;7.10;;;;;;;1.79;81.84;96329.29;107772;1235;97981;-79
2024/01/05 05:12:57;;;;;;;10.40;7.60;;;;;;;1.80;81.90;96338.60;107761;1240;97878;-81
2024/01/05 05:15:23;;;;;;;9.40;7.70;;;;;;;1.83;81.90;96346.77;107831;1245;97934;-81
2024/01/05 05:17:51;;;;;;;10.40;7.90;;;;;;;1.87;81.88;96352.52;107795;1240;101342;-80
2024/01/05 05:20:17;;;;;;;10.10;8.00;;;;;;;1.90;81.85;96352.19;107763;1247;98848;-80
2024/01/05 05:22:44;;;;;;;9.90;8.30;;;;;;;1.90;81.79;96354.32;107758;1249;97966;-80
2024/01/05 05:25:10;;;;;;;10.40;7.70;;;;;;;1.85;81.65;96349.94;107806;1239;97959;-79
2024/01/05 05:27:37;;;;;;;11.10;8.30;;;;;;;1.83;81.67;96356.95;107887;1241;97997;-82
2024/01/05 05:30:06;;;;;;;13.80;10.20;;;;;;;1.80;81.70;96359.30;107773;1248;99661;-81
2024/01/05 05:32:33;;;;;;;14.60;10.60;;;;;;;1.76;81.77;96365.30;107792;1248;97890;-88
2024/01/05 05:34:59;;;;;;;13.20;10.30;;;;;;;1.71;81.89;96365.04;107821;1248;97884;-88
2024/01/05 05:37:26;;;;;;;14.40;10.30;;;;;;;1.65;82.00;96372.62;107437;1235;97998;-78
2024/01/05 05:39:52;;;;;;;14.00;10.80;;;;;;;1.62;82.08;96378.66;107805;1248;97910;-77
2024/01/05 05:42:19;;;;;;;12.40;10.10;;;;;;;1.64;82.11;96382.02;107865;1238;98852;-77
2024/01/05 05:44:45;;;;;;;19.10;15.10;;;;;;;1.69;82.12;96390.14;107867;1241;98869;-76
2024/01/05 05:47:11;;;;;;;40.60;36.10;;;;;;;1.72;82.18;96391.83;107913;1249;97827;-76
2024/01/05 05:49:38;;;;;;;53.90;46.70;;;;;;;1.76;82.13;96387.45;107810;1241;97897;-77
2024/01/05 05:52:05;;;;;;;39.80;34.40;;;;;;;1.79;82.08;96380.20;107874;1248;98794;-78
2024/01/05 05:54:32;;;;;;;23.60;20.10;;;;;;;1.78;82.10;96386.51;107766;1239;98000;-76
2024/01/05 05:56:58;;;;;;;16.90;14.00;;;;;;;1.76;82.16;96393.30;107845;1249;97845;-85
2024/01/05 05:59:24;;;;;;;14.20;12.50;;;;;;;1.76;82.26;96394.96;107923;1247;97921;-82
2024/01/05 06:01:54;;;;;;;29.20;23.40;;;;;;;1.80;82.34;96393.92;107867;1238;97916;-77
2024/01/05 06:04:20;;;;;;;109.70;71.40;;;;;;;1.84;82.43;96398.11;107796;1247;98468;-77
2024/01/05 06:06:47;;;;;;;322.40;229.50;;;;;;;1.86;82.37;96397.36;107931;1249;98366;-77
2024/01/05 06:09:14;;;;;;;335.80;249.30;;;;;;;1.89;82.36;96393.44;107913;1246;97931;-77
2024/01/05 06:11:43;;;;;;;260.80;190.70;;;;;;;1.90;82.38;96400.59;107896;1238;97995;-77
2024/01/05 06:14:10;;;;;;;153.00;107.90;;;;;;;1.92;82.44;96403.54;107818;1244;99450;-83
2024/01/05 06:16:36;;;;;;;144.70;100.10;;;;;;;1.94;82.41;96407.39;107703;1235;99152;-80
2024/01/05 06:19:03;;;;;;;96.70;72.50;;;;;;;1.95;82.45;96409.33;107982;1237;98139;-81
2024/01/05 06:21:29;;;;;;;89.30;68.90;;;;;;;1.97;82.38;96408.98;107925;1238;97980;-82
2024/01/05 06:23:59;;;;;;;93.10;76.80;;;;;;;1.97;82.34;96403.70;107783;1235;98069;-84
2024/01/05 06:26:25;;;;;;;77.40;66.00;;;;;;;1.95;82.22;96406.61;107821;1239;98335;-81
2024/01/05 06:28:52;;;;;;;50.30;43.30;;;;;;;1.95;82.31;96406.52;107796;1246;97979;-81
2024/01/05 06:31:18;;;;;;;38.00;30.90;;;;;;;1.98;82.35;96403.20;107801;1248;97917;-90
2024/01/05 06:33:50;;;;;;;36.40;29.90;;;;;;;2.00;82.32;96405.40;107502;1241;99252;-77
2024/01/05 06:36:17;;;;;;;35.30;28.20;;;;;;;1.99;82.34;96403.45;107824;1239;99217;-80
2024/01/05 06:38:52;;;;;;;34.10;26.60;;;;;;;1.98;82.49;96402.26;107805;1239;97966;-81
2024/01/05 06:41:19;;;;;;;29.90;23.10;;;;;;;2.00;82.50;96405.23;107992;1238;101213;-81
2024/01/05 06:43:45;;;;;;;21.10;17.00;;;;;;;2.03;82.50;96394.64;107806;1247;97906;-82
2024/01/05 06:46:11;;;;;;;20.60;15.20;;;;;;;2.01;82.47;96391.41;107827;1238;97971;-80
2024/01/05 06:48:38;;;;;;;21.70;17.10;;;;;;;2.03;82.38;96397.43;107847;1239;98573;-81
2024/01/05 06:51:04;;;;;;;36.80;26.60;;;;;;;2.03;82.36;96395.63;107783;1247;100210;-80
2024/01/05 06:53:31;;;;;;;46.30;29.10;;;;;;;2.01;82.30;96391.09;107835;1241;97891;-77
2024/01/05 06:55:57;;;;;;;41.70;28.60;;;;;;;1.97;82.45;96394.55;107838;1238;97923;-90
2024/01/05 06:58:24;;;;;;;42.40;31.00;;;;;;;1.97;82.63;96395.48;107923;1247;97902;-89
2024/01/05 07:00:50;;;;;;;53.50;47.10;;;;;;;1.96;82.65;96396.65;107737;1241;108246;-83
2024/01/05 07:03:16;;;;;;;54.00;47.80;;;;;;;1.93;82.55;96403.27;107788;1249;99144;-82
2024/01/05 07:05:43;;;;;;;35.40;28.50;;;;;;;1.90;82.63;96405.04;107862;1249;98004;-82
2024/01/05 07:08:10;;;;;;;23.90;19.60;;;;;;;1.91;82.63;96402.64;107888;1235;97942;-82
2024/01/05 07:10:36;;;;;;;20.30;17.30;;;;;;;1.88;82.63;96398.18;107780;1241;101337;-83
2024/01/05 07:13:07;;;;;;;21.60;17.70;;;;;;;1.87;82.72;96394.89;107754;1247;97924;-88
2024/01/05 07:15:33;;;;;;;21.20;16.80;;;;;;;1.84;82.73;96384.67;107826;1239;97908;-89
2024/01/05 07:18:20;;;;;;;24.20;16.30;;;;;;;1.83;82.84;96389.20;107866;1238;97918;-77
2024/01/05 07:20:46;;;;;;;22.80;17.40;;;;;;;1.84;83.03;96391.02;107828;1239;102615;-77
2024/01/05 07:23:13;;;;;;;21.70;16.80;;;;;;;1.85;83.09;96395.17;107549;1241;99307;-77
2024/01/05 07:25:39;;;;;;;39.00;30.70;;;;;;;1.86;83.16;96401.13;107849;1246;97924;-77
2024/01/05 07:28:06;;;;;;;26.70;21.00;;;;;;;1.91;83.16;96402.13;107908;1240;97884;-78
2024/01/05 07:30:38;;;;;;;21.40;17.30;;;;;;;1.95;83.21;96399.83;107952;1239;102094;-81
2024/01/05 07:33:05;;;;;;;17.30;14.50;;;;;;;2.00;83.18;96404.70;107193;1243;100487;-89
2024/01/05 07:35:31;;;;;;;20.80;15.70;;;;;;;2.02;83.10;96403.02;107825;1238;97921;-90
2024/01/05 07:37:58;;;;;;;25.80;18.00;;;;;;;2.04;82.98;96402.64;107720;1241;97890;-89
2024/01/05 07:40:24;;;;;;;25.60;19.10;;;;;;;2.06;83.01;96399.05;107760;1241;98839;-91
2024/01/05 07:42:51;;;;;;;29.90;22.70;;;;;;;2.08;83.02;96398.77;107899;1238;100310;-90
2024/01/05 07:45:17;;;;;;;36.60;29.70;;;;;;;2.10;82.94;96399.08;107811;1250;97946;-88
2024/01/05 07:47:43;;;;;;;26.70;18.40;;;;;;;2.09;82.94;96399.52;107768;1239;97914;-77
2024/01/05 07:50:10;;;;;;;73.40;35.50;;;;;;;2.05;82.79;96398.23;107897;1240;97893;-81
2024/01/05 07:52:36;;;;;;;70.70;36.00;;;;;;;2.00;82.73;96398.45;107854;1235;101204;-82
2024/01/05 07:55:03;;;;;;;50.40;27.90;;;;;;;2.00;82.91;96394.79;107436;1235;99160;-81
2024/01/05 07:57:30;;;;;;;41.10;24.00;;;;;;;1.99;82.91;96397.53;107453;1238;99142;-81
2024/01/05 08:00:15;;;;;;;46.80;26.60;;;;;;;1.98;82.96;96393.90;107401;1240;99133;-82
2024/01/05 08:02:41;;;;;;;46.80;27.50;;;;;;;2.02;83.08;96385.70;107732;1241;102515;-83
2024/01/05 08:05:11;;;;;;;41.80;26.40;;;;;;;2.06;83.07;96382.13;107839;1246;97972;-82
2024/01/05 08:07:38;;;;;;;45.50;27.50;;;;;;;2.10;83.09;96387.32;107837;1236;99944;-83
2024/01/05 08:10:05;;;;;;;43.70;26.70;;;;;;;2.12;83.15;96387.45;107814;1238;97984;-82
2024/01/05 08:12:32;;;;;;;30.80;22.70;;;;;;;2.15;83.05;96388.85;107734;1235;98355;-81
2024/01/05 08:14:58;;;;;;;34.90;23.00;;;;;;;2.17;83.02;96388.00;107842;1248;97910;-82
2024/01/05 08:17:25;;;;;;;30.80;22.50;;;;;;;2.21;83.09;96391.16;107902;1238;98808;-90
2024/01/05 08:19:51;;;;;;;35.10;23.50;;;;;;;2.27;83.17;96396.66;107820;1236;97935;-89
2024/01/05 08:22:18;;;;;;;30.40;20.90;;;;;;;2.31;83.18;96401.33;107840;1235;98393;-89
2024/01/05 08:24:45;;;;;;;24.50;18.90;;;;;;;2.33;83.09;96398.98;107873;1243;97915;-90
2024/01/05 08:27:22;;;;;;;27.90;20.60;;;;;;;2.30;82.97;96399.23;107770;1238;98056;-81
2024/01/05 08:29:48;;;;;;;28.30;19.00;;;;;;;2.30;82.95;96400.91;107795;1248;99841;-80
2024/01/05 08:32:15;;;;;;;36.40;26.20;;;;;;;2.32;83.12;96405.80;107826;1235;97910;-80
2024/01/05 08:34:41;;;;;;;42.60;27.70;;;;;;;2.31;82.99;96407.48;107506;1241;97988;-81
2024/01/05 08:37:08;;;;;;;52.20;30.80;;;;;;;2.32;82.92;96405.52;107500;1250;97859;-80
2024/01/05 08:39:34;;;;;;;59.20;34.30;;;;;;;2.38;82.95;96406.19;107419;1238;98853;-81
2024/01/05 08:42:01;;;;;;;53.10;32.70;;;;;;;2.44;82.99;96403.98;107412;1235;98848;-80
2024/01/05 08:44:32;;;;;;;43.30;26.60;;;;;;;2.50;82.98;96402.25;107455;1239;97982;-80
2024/01/05 08:47:21;;;;;;;35.90;24.70;;;;;;;2.55;82.94;96403.36;107682;1248;102449;-82
2024/01/05 08:49:48;;;;;;;40.70;24.80;;;;;;;2.61;82.95;96407.17;107786;1248;100282;-89
2024/01/05 08:52:17;;;;;;;41.40;27.40;;;;;;;2.63;82.77;96410.11;107813;1248;97931;-89
2024/01/05 08:54:44;;;;;;;42.80;28.80;;;;;;;2.63;82.65;96416.14;107748;1238;97973;-90
2024/01/05 08:57:21;;;;;;;45.10;27.60;;;;;;;2.63;82.50;96415.61;107845;1241;97982;-89
2024/01/05 08:59:47;;;;;;;41.80;28.20;;;;;;;2.63;82.69;96411.88;107810;1238;103415;-91
2024/01/05 09:02:14;;;;;;;36.50;25.20;;;;;;;2.66;82.70;96410.14;107827;1241;98048;-89
2024/01/05 09:04:40;;;;;;;41.40;24.70;;;;;;;2.69;82.56;96407.92;107704;1243;97987;-91
2024/01/05 09:07:07;;;;;;;36.80;25.80;;;;;;;2.71;82.53;96408.73;107822;1240;99149;-77
2024/01/05 09:09:33;;;;;;;42.30;28.70;;;;;;;2.73;82.63;96408.48;107662;1243;102495;-81
2024/01/05 09:12:02;;;;;;;47.40;31.20;;;;;;;2.77;82.73;96410.34;107846;1238;97903;-83
2024/01/05 09:14:29;;;;;;;42.70;27.80;;;;;;;2.80;82.71;96409.70;107848;1238;98472;-82
2024/01/05 09:16:55;;;;;;;33.20;23.10;;;;;;;2.88;82.71;96415.17;107853;1247;97884;-83
2024/01/05 09:19:22;;;;;;;27.20;19.60;;;;;;;2.98;82.85;96417.05;107792;1238;98372;-83
2024/01/05 09:21:49;;;;;;;27.30;18.90;;;;;;;3.09;82.81;96420.49;107835;1238;97898;-84
2024/01/05 09:24:36;;;;;;;29.90;18.50;;;;;;;3.19;82.70;96422.45;107787;1238;99778;-89
2024/01/05 09:27:03;;;;;;;29.10;20.10;;;;;;;3.28;82.75;96422.62;107630;1238;97828;-81
2024/01/05 09:29:33;;;;;;;27.80;19.60;;;;;;;3.40;82.81;96418.34;107715;1238;97883;-82
2024/01/05 09:32:00;;;;;;;24.10;15.70;;;;;;;3.56;82.83;96410.20;107870;1238;102372;-78
2024/01/05 09:34:27;;;;;;;19.20;14.50;;;;;;;3.70;82.63;96402.77;107918;1238;97937;-77
2024/01/05 09:36:54;;;;;;;19.30;13.30;;;;;;;3.79;82.59;96398.94;107949;1238;98390;-77
2024/01/05 09:39:20;;;;;;;22.20;15.10;;;;;;;3.85;82.29;96401.05;107932;1240;97937;-79
2024/01/05 09:41:47;;;;;;;20.70;14.20;;;;;;;3.85;82.06;96394.69;107896;1239;97850;-78
2024/01/05 09:44:15;;;;;;;21.30;15.00;;;;;;;3.86;82.06;96391.81;107932;1243;101265;-89
2024/01/05 09:46:43;;;;;;;22.60;15.80;;;;;;;3.88;82.04;96396.54;107830;1238;99876;-88
2024/01/05 09:49:16;;;;;;;27.20;18.50;;;;;;;3.86;81.80;96391.56;107794;1249;99193;-78
2024/01/05 09:51:43;;;;;;;26.50;19.20;;;;;;;3.84;81.81;96388.02;107843;1238;98333;-78
2024/01/05 09:54:11;;;;;;;26.80;20.10;;;;;;;3.87;82.01;96379.90;107792;1238;97923;-78
2024/01/05 09:56:39;;;;;;;32.60;20.50;;;;;;;3.97;82.17;96373.98;107863;1238;98333;-78
2024/01/05 09:59:07;;;;;;;27.40;20.20;;;;;;;4.11;82.28;96375.14;107888;1245;97996;-78
2024/01/05 10:01:35;;;;;;;27.50;19.70;;;;;;;4.24;82.18;96369.91;108054;1236;99474;-77
2024/01/05 10:04:23;;;;;;;30.00;22.60;;;;;;;4.29;82.03;96367.08;107622;1235;97874;-81
2024/01/05 10:07:00;;;;;;;33.30;21.80;;;;;;;4.35;81.94;96367.58;107817;1238;102571;-79
2024/01/05 10:09:29;;;;;;;29.00;20.10;;;;;;;4.43;82.03;96370.72;108021;1249;100321;-79
2024/01/05 10:11:57;;;;;;;33.90;21.20;;;;;;;4.64;82.31;96370.11;107901;1238;98325;-77
2024/01/05 10:14:28;;;;;;;35.20;22.10;;;;;;;4.96;82.48;96372.57;107820;1235;97991;-77
2024/01/05 10:17:29;;;;;;;32.80;23.40;;;;;;;5.24;82.01;96372.35;107895;1236;98826;-79
2024/01/05 10:20:37;;;;;;;28.50;18.70;;;;;;;5.52;81.63;96373.80;107444;1239;102710;-79
2024/01/05 10:23:44;;;;;;;22.70;16.40;;;;;;;5.86;81.72;96373.04;107805;1249;101277;-77
2024/01/05 10:26:57;;;;;;;20.80;13.70;;;;;;;6.21;81.34;96362.70;107684;1249;99816;-80
2024/01/05 10:29:59;;;;;;;15.90;9.40;;;;;;;6.55;81.18;96355.79;107601;1240;98833;-77
2024/01/05 10:32:26;;;;;;;10.70;7.20;;;;;;;7.03;80.83;96355.05;107821;1241;97970;-80
2024/01/05 10:34:54;;;;;;;13.50;7.90;;;;;;;7.39;79.92;96359.11;107972;1238;97799;-80
2024/01/05 10:37:21;;;;;;;12.50;7.20;;;;;;;7.71;79.25;96364.21;107787;1244;99039;-80
2024/01/05 10:39:52;;;;;;;10.40;6.90;;;;;;;7.96;77.57;96364.16;107849;1242;98046;-83
2024/01/05 10:42:19;;;;;;;8.00;5.70;;;;;;;8.23;76.74;96363.09;107726;1235;97911;-81
2024/01/05 10:44:47;;;;;;;10.40;5.90;;;;;;;8.58;76.22;96366.10;107539;1249;97978;-82
2024/01/05 10:47:15;;;;;;;7.70;5.40;;;;;;;8.93;76.03;96367.83;107823;1246;97994;-82
2024/01/05 10:49:48;;;;;;;8.60;4.90;;;;;;;9.30;75.80;96368.52;107646;1249;97888;-82
2024/01/05 10:52:19;;;;;;;5.50;3.20;;;;;;;9.58;74.40;96367.28;107829;1249;100049;-82
2024/01/05 10:54:47;;;;;;;6.30;2.90;;;;;;;9.89;74.49;96365.73;107847;1239;97976;-82
2024/01/05 10:57:54;;;;;;;4.10;3.10;;;;;;;10.16;73.98;96353.58;107802;1244;98700;-82
2024/01/05 11:00:24;;;;;;;4.10;2.50;;;;;;;10.28;72.33;96354.36;107787;1238;103547;-82
2024/01/05 11:03:18;;;;;;;6.70;3.70;;;;;;;10.30;71.53;96347.95;107866;1238;101561;-78
2024/01/05 11:05:53;;;;;;;3.90;2.30;;;;;;;10.33;70.57;96342.23;107837;1235;98882;-90
2024/01/05 11:09:12;;;;;;;3.60;2.00;;;;;;;10.49;68.17;96337.06;107714;1238;97991;-90
2024/01/05 11:12:31;;;;;;;2.60;1.60;;;;;;;10.64;65.06;96340.05;107670;1249;99068;-93
2024/01/05 11:16:03;;;;;;;2.90;1.50;;;;;;;10.75;61.91;96332.90;107822;1238;102435;-94
2024/01/05 11:19:07;;;;;;;4.00;1.50;;;;;;;11.05;64.29;96329.73;106413;1254;99985;-91
2024/01/05 11:22:10;;;;;;;1.80;1.10;;;;;;;11.40;61.73;96325.15;105610;1260;99816;-76
2024/01/05 11:24:57;;;;;;;;;;;;;;;11.63;62.46;96318.35;101342;1260;5356423;-77
2024/01/05 11:28:13;;;;;;;2.30;1.40;;;;;;;11.52;59.57;96317.41;105210;1272;98381;-77
2024/01/05 11:31:34;;;;;;;3.00;1.30;;;;;;;11.11;57.74;96314.23;104798;1270;102521;-77
2024/01/05 11:44:10;;;;;;;2.90;1.60;;;;;;;10.96;59.60;96294.66;104129;1274;99631;-77
2024/01/05 11:53:50;;;;;;;7.70;4.10;;;;;;;11.30;58.61;96288.86;104230;1273;101010;-83